Latest Weather Observations for Troughton Island

IDD60801

Issued at 11:01 pm CST Tuesday 1 September 2015 (issued every 30 minutes, with the page automatically refreshed every 10 minutes)

About weather observations | Map of weather stations | Latest weather observations for NT | Other Formats
Station Details ID: 001007 Name: TROUGHTON ISLAND Lat: -13.75 Lon: 126.15 Height: 6.0 m
Data from the previous 72 hours. | See also: Recent months at Troughton Island
Date/Time
CST
Temp
°C
App
Temp
°C
Dew
Point
Rel
Hum
%
Delta-T
°C
Wind Press
QNH
hPa
Press
MSL
hPa
Rain
since 9 am
mm
Dir
 
Spd
km/h
Gust
km/h
Spd
kts
Gust
kts
01/11:00pm 25.3 25.3 21.6 80 2.5 WSW 24 28 13 15 1015.4 1015.3 0.0
01/10:30pm 25.1 25.2 21.2 79 2.6 WSW 22 26 12 14 1015.3 1015.2 0.0
01/10:00pm 25.1 25.2 21.2 79 2.6 WSW 22 26 12 14 1015.2 1015.1 0.0
01/09:30pm 25.3 25.3 21.0 77 2.8 WSW 22 26 12 14 1015.1 1015.0 0.0
01/09:00pm 25.3 25.3 21.0 77 2.8 WSW 22 26 12 14 1014.8 1014.7 0.0
01/08:30pm 25.4 25.0 20.9 76 3.0 WSW 24 28 13 15 1014.4 1014.3 0.0
01/08:00pm 25.5 25.1 21.0 76 3.0 W 24 28 13 15 1013.9 1013.8 0.0
01/07:30pm 25.7 25.3 20.9 75 3.2 WSW 24 28 13 15 1013.5 1013.4 0.0
01/07:00pm 25.9 25.6 21.1 75 3.2 W 24 30 13 16 1013.3 1013.2 0.0
01/06:30pm 26.6 25.9 21.1 72 3.6 W 26 32 14 17 1013.1 1013.0 0.0
01/06:00pm 27.2 27.2 21.7 72 3.7 W 24 30 13 16 1013.0 1012.9 0.0
01/05:30pm 27.6 27.1 21.4 69 4.1 W 26 30 14 16 1012.9 1012.8 0.0
01/05:00pm 27.8 27.5 21.1 67 4.4 W 24 30 13 16 1012.8 1012.7 0.0
01/04:30pm 28.5 27.6 21.5 66 4.7 W 28 32 15 17 1012.9 1012.8 0.0
01/04:00pm 28.4 27.6 21.7 67 4.5 W 28 32 15 17 1013.0 1012.9 0.0
01/03:30pm 28.5 27.6 21.5 66 4.7 W 28 32 15 17 1013.3 1013.2 0.0
01/03:00pm 28.8 28.0 20.8 62 5.3 WSW 26 33 14 18 1013.6 1013.5 0.0
01/02:30pm 28.6 27.8 21.6 66 4.7 WSW 28 33 15 18 1013.9 1013.8 0.0
01/02:00pm 28.7 28.3 21.7 66 4.7 WSW 26 32 14 17 1014.3 1014.2 0.0
01/01:30pm 29.1 29.4 22.3 66 4.6 WSW 24 30 13 16 1014.6 1014.5 0.0
01/01:00pm 28.4 28.4 21.7 67 4.5 WSW 24 28 13 15 1015.1 1015.0 0.0
01/12:30pm 28.2 28.4 22.0 69 4.2 WSW 24 28 13 15 1015.5 1015.4 0.0
01/12:00pm 28.3 28.6 22.3 70 4.1 WSW 24 26 13 14 1015.8 1015.7 0.0
01/11:30am 28.2 28.4 22.0 69 4.2 WSW 24 28 13 15 1016.0 1015.9 0.0
01/11:00am 28.3 28.9 22.8 72 3.7 WSW 24 28 13 15 1016.1 1016.0 0.0
01/10:30am 27.6 27.7 21.9 71 3.8 WSW 24 28 13 15 1016.1 1016.0 0.0
01/10:00am 27.6 28.2 22.1 72 3.7 WSW 22 28 12 15 1016.0 1015.9 0.0
01/09:30am 27.1 27.7 22.1 74 3.4 WSW 22 26 12 14 1015.9 1015.8 0.0
01/09:00am 26.6 27.3 22.2 77 3.0 WSW 22 26 12 14 1015.9 1015.8 0.0
01/08:30am 25.9 26.9 22.2 80 2.5 WSW 20 26 11 14 1015.7 1015.6 0.0
01/08:00am 25.6 26.9 22.7 84 2.0 WSW 20 24 11 13 1015.4 1015.3 0.0
01/07:30am 25.0 25.9 21.9 83 2.1 WSW 20 24 11 13 1015.0 1014.9 0.0
01/07:00am 25.1 26.0 22.0 83 2.1 SW 20 26 11 14 1014.6 1014.5 0.0
01/06:30am 25.1 25.2 21.8 82 2.2 SW 24 30 13 16 1014.1 1014.0 0.0
01/06:00am 25.2 25.8 22.1 83 2.1 SW 22 28 12 15 1013.8 1013.7 0.0
01/05:30am 25.2 25.3 21.9 82 2.2 SW 24 28 13 15 1013.5 1013.4 0.0
01/05:00am 25.3 24.8 21.4 79 2.6 SW 26 32 14 17 1013.4 1013.3 0.0
01/04:30am 25.4 25.1 21.9 81 2.3 SW 26 32 14 17 1013.4 1013.3 0.0
01/04:00am 25.3 25.1 22.0 82 2.2 SW 26 33 14 18 1013.4 1013.3 0.0
01/03:30am 25.3 25.3 22.4 84 1.9 SW 26 32 14 17 1013.6 1013.5 0.0
01/03:00am 25.4 25.3 22.9 86 1.7 SW 28 32 15 17 1013.7 1013.6 0.0
01/02:30am 25.4 25.3 22.9 86 1.7 SW 28 33 15 18 1013.9 1013.8 0.0
01/02:00am 25.4 25.4 23.1 87 1.6 SW 28 32 15 17 1014.3 1014.2 0.0
01/01:30am 25.4 25.4 23.1 87 1.6 SW 28 32 15 17 1014.6 1014.5 0.0
01/01:00am 25.4 25.8 23.1 87 1.6 WSW 26 32 14 17 1014.8 1014.7 0.0
01/12:30am 25.6 26.2 23.5 88 1.4 SW 26 32 14 17 1015.0 1014.9 0.0
01/12:00am 25.6 25.7 23.3 87 1.6 WSW 28 35 15 19 1015.0 1014.9 0.0
 
Date/Time
CST
Temp
°C
App
Temp
°C
Dew
Point
Rel
Hum
%
Delta-T
°C
Wind Press
QNH
hPa
Press
MSL
hPa
Rain
since 9 am
mm
Dir
 
Spd
km/h
Gust
km/h
Spd
kts
Gust
kts
31/11:30pm 25.6 25.7 23.3 87 1.6 SW 28 32 15 17 1015.0 1014.9 0.0
31/11:00pm 25.8 26.0 23.5 87 1.6 WSW 28 35 15 19 1014.9 1014.8 0.0
31/10:30pm 25.7 25.3 23.0 85 1.8 WSW 30 35 16 19 1015.0 1014.9 0.0
31/10:00pm 25.8 25.3 22.9 84 2.0 SW 30 35 16 19 1014.9 1014.8 0.0
31/09:30pm 25.7 25.8 23.2 86 1.7 WSW 28 33 15 18 1014.8 1014.7 0.0
31/09:00pm 25.8 26.0 23.5 87 1.6 WSW 28 32 15 17 1014.6 1014.5 0.0
31/08:30pm 25.9 25.9 23.0 84 2.0 WSW 28 33 15 18 1014.3 1014.2 0.0
31/08:00pm 25.9 26.2 23.0 84 2.0 WSW 26 30 14 16 1014.0 1013.9 0.0
31/07:30pm 26.1 26.4 23.6 86 1.7 WSW 28 33 15 18 1013.7 1013.6 0.0
31/07:00pm 26.2 26.5 22.9 82 2.2 WSW 26 32 14 17 1013.7 1013.6 0.0
31/06:30pm 27.0 28.0 23.5 81 2.4 W 24 28 13 15 1013.7 1013.6 0.0
31/06:00pm 27.7 28.6 23.3 77 3.0 W 24 28 13 15 1013.6 1013.5 0.0
31/05:30pm 28.1 29.3 23.2 74 3.3 W 22 26 12 14 1013.4 1013.3 0.0
31/05:00pm 28.5 30.2 24.1 77 3.0 W 22 26 12 14 1013.3 1013.2 0.0
31/04:30pm 28.4 29.4 23.5 75 3.4 W 24 28 13 15 1013.3 1013.2 0.0
31/04:00pm 29.1 30.4 24.0 74 3.5 W 24 28 13 15 1013.4 1013.3 0.0
31/03:30pm 28.9 29.8 23.3 72 3.8 W 24 26 13 14 1013.8 1013.7 0.0
31/03:00pm 29.0 30.3 23.4 72 3.8 W 22 26 12 14 1014.1 1014.0 0.0
31/02:30pm 28.9 30.7 23.6 73 3.6 W 20 24 11 13 1014.7 1014.6 0.0
31/02:00pm 29.4 31.3 23.8 72 3.9 W 20 22 11 12 1015.0 1014.9 0.0
31/01:30pm 29.3 31.4 23.7 72 3.9 W 19 22 10 12 1015.2 1015.1 0.0
31/01:00pm 28.5 30.3 23.2 73 3.6 W 19 22 10 12 1015.4 1015.3 0.0
31/12:30pm 29.0 31.0 23.9 74 3.5 W 20 22 11 12 1015.8 1015.7 0.0
31/12:00pm 28.9 31.1 23.3 72 3.8 WNW 17 20 9 11 1016.3 1016.2 0.0
31/11:30am 28.9 31.4 23.8 74 3.5 WNW 17 20 9 11 1016.7 1016.6 0.0
31/11:00am 28.4 31.1 23.5 75 3.4 W 15 17 8 9 1016.6 1016.5 0.0
31/10:30am 28.1 30.6 23.2 74 3.3 WSW 15 19 8 10 1016.6 1016.5 0.0
31/10:00am 28.2 30.7 23.8 77 3.0 SW 17 22 9 12 1016.3 1016.2 0.0
31/09:30am 27.5 29.3 23.5 79 2.7 SW 20 24 11 13 1016.0 1015.9 0.0
31/09:00am 27.0 29.0 23.9 83 2.1 SW 20 26 11 14 1015.6 1015.5 0.0
31/08:30am 26.4 28.4 23.9 86 1.7 SW 20 26 11 14 1015.4 1015.3 0.0
31/08:00am 25.9 27.9 23.9 89 1.4 SW 20 24 11 13 1015.3 1015.2 0.0
31/07:30am 25.6 27.5 23.8 90 1.2 SW 20 24 11 13 1015.0 1014.9 0.0
31/07:00am 25.5 26.9 23.6 89 1.3 SW 22 26 12 14 1014.7 1014.6 0.0
31/06:30am 25.4 26.8 23.5 89 1.3 SW 22 28 12 15 1014.2 1014.1 0.0
31/06:00am 25.5 26.4 23.4 88 1.4 SW 24 30 13 16 1013.9 1013.8 0.0
31/05:30am 25.5 26.2 23.6 89 1.3 WSW 26 30 14 16 1013.7 1013.6 0.0
31/05:00am 25.5 26.7 23.9 91 1.1 WSW 24 28 13 15 1013.7 1013.6 0.0
31/04:30am 25.5 27.0 23.7 90 1.2 WSW 22 28 12 15 1014.0 1013.9 0.0
31/04:00am 25.5 26.6 23.7 90 1.2 SW 24 28 13 15 1014.2 1014.1 0.0
31/03:30am 25.5 27.0 23.7 90 1.2 WSW 22 28 12 15 1014.4 1014.3 0.0
31/03:00am 25.3 27.0 23.4 89 1.3 SW 20 24 11 13 1014.8 1014.7 0.0
31/02:30am 25.3 27.4 23.7 91 1.1 WSW 19 22 10 12 1015.2 1015.1 0.0
31/02:00am 25.5 27.7 23.9 91 1.1 WSW 19 22 10 12 1015.5 1015.4 0.0
31/01:30am 25.5 28.1 23.9 91 1.1 WSW 17 20 9 11 1015.8 1015.7 0.0
31/01:00am 25.5 28.6 24.1 92 1.0 WSW 15 17 8 9 1016.1 1016.0 0.0
31/12:30am 25.5 28.2 24.1 92 1.0 WSW 17 19 9 10 1016.3 1016.2 0.0
31/12:00am 25.5 28.9 24.1 92 1.0 WSW 13 15 7 8 1016.5 1016.4 0.0
 
Date/Time
CST
Temp
°C
App
Temp
°C
Dew
Point
Rel
Hum
%
Delta-T
°C
Wind Press
QNH
hPa
Press
MSL
hPa
Rain
since 9 am
mm
Dir
 
Spd
km/h
Gust
km/h
Spd
kts
Gust
kts
30/11:30pm 25.4 29.3 24.2 93 0.8 WSW 11 13 6 7 1016.6 1016.5 0.0
30/11:00pm 25.5 29.4 24.3 93 0.8 WSW 11 13 6 7 1016.7 1016.6 0.0
30/10:30pm 25.6 30.0 24.4 93 0.8 WSW 9 11 5 6 1016.5 1016.4 0.0
30/10:00pm 25.5 29.3 24.1 92 1.0 WSW 11 11 6 6 1016.4 1016.3 0.0
30/09:30pm 25.5 29.6 23.9 91 1.1 WSW 9 11 5 6 1016.2 1016.1 0.0
30/09:00pm 25.7 29.3 23.7 89 1.4 W 11 11 6 6 1016.0 1015.9 0.0
30/08:30pm 25.8 29.4 23.8 89 1.4 WSW 11 11 6 6 1015.8 1015.7 0.0
30/08:00pm 26.1 29.1 23.4 85 1.8 W 13 15 7 8 1015.2 1015.1 0.0
30/07:30pm 26.3 29.3 23.4 84 2.0 W 13 15 7 8 1014.8 1014.7 0.0
30/07:00pm 26.6 29.5 23.1 81 2.4 W 13 15 7 8 1014.7 1014.6 0.0
30/06:30pm 27.4 30.4 23.4 79 2.7 W 13 17 7 9 1014.4 1014.3 0.0
30/06:00pm 28.0 30.1 23.1 74 3.3 WNW 17 20 9 11 1014.1 1014.0 0.0
30/05:30pm 28.5 30.5 23.0 72 3.8 WNW 17 20 9 11 1013.9 1013.8 0.0
30/05:00pm 28.6 30.3 22.3 68 4.3 WNW 17 20 9 11 1013.8 1013.7 0.0
30/04:30pm 28.6 30.9 22.8 71 3.9 NW 15 19 8 10 1013.9 1013.8 0.0
30/04:00pm 28.6 30.3 22.3 68 4.3 NW 17 20 9 11 1014.1 1014.0 0.0
30/03:30pm 28.4 30.1 22.4 70 4.1 NW 17 20 9 11 1014.3 1014.2 0.0
30/03:00pm 29.0 31.0 23.0 70 4.1 NW 17 19 9 10 1014.6 1014.5 0.0
30/02:30pm 29.4 31.8 23.6 71 4.0 NW 17 20 9 11 1015.1 1015.0 0.0
30/02:00pm 28.0 30.7 23.4 76 3.2 NW 15 19 8 10 1015.4 1015.3 0.0
30/01:30pm 28.2 30.9 22.9 73 3.6 NW 13 15 7 8 1015.9 1015.8 0.0
30/01:00pm 28.1 31.3 23.0 74 3.5 WNW 11 13 6 7 1016.1 1016.0 0.0
30/12:30pm 28.0 31.8 22.7 73 3.6 WNW 7 11 4 6 1016.6 1016.5 0.0
30/12:00pm 28.2 32.2 23.1 74 3.5 SW 7 11 4 6 1017.1 1017.0 0.0
30/11:30am 27.9 31.5 23.1 75 3.3 SW 9 11 5 6 1017.4 1017.3 0.0
30/11:00am 27.6 30.8 23.0 76 3.1 SSW 11 13 6 7 1017.5 1017.4 0.0
30/10:30am 27.7 31.3 23.1 76 3.1 S 9 13 5 7 1017.6 1017.5 0.0
30/10:00am 27.5 31.1 23.1 77 3.0 S 9 13 5 7 1017.3 1017.2 0.0
30/09:30am 26.8 30.0 23.1 80 2.5 S 11 13 6 7 1017.0 1016.9 0.0
30/09:00am 26.4 30.0 23.1 82 2.2 SSW 9 13 5 7 1016.7 1016.6 0.0
30/08:30am 25.9 30.1 23.4 86 1.7 SSW 7 9 4 5 1016.4 1016.3 0.0
30/08:00am 25.4 29.9 23.6 90 1.2 S 6 7 3 4 1016.1 1016.0 0.0
30/07:30am 24.7 28.9 23.5 93 0.8 S 7 9 4 5 1015.5 1015.4 0.0
30/07:00am 24.8 28.5 23.2 91 1.1 SSW 9 11 5 6 1015.0 1014.9 0.0
30/06:30am 24.9 27.9 23.3 91 1.1 S 13 17 7 9 1014.7 1014.6 0.0
30/06:00am 24.8 27.8 23.4 92 1.0 SSW 13 15 7 8 1014.5 1014.4 0.0
30/05:30am 24.8 27.6 23.6 93 0.8 SSW 15 17 8 9 1014.4 1014.3 0.0
30/05:00am 24.7 27.5 23.7 94 0.7 SSW 15 17 8 9 1014.2 1014.1 0.0
30/04:30am 24.7 28.0 23.8 95 0.6 SW 13 15 7 8 1014.2 1014.1 0.0
30/04:00am 24.8 28.6 24.1 96 0.5 SSW 11 13 6 7 1014.2 1014.1 0.0
30/03:30am 24.9 28.8 24.2 96 0.5 SSW 11 13 6 7 1014.3 1014.2 0.0
30/03:00am 24.5 28.7 23.5 94 0.7 SSW 7 9 4 5 1014.9 1014.8 0.0
30/02:30am 24.6 28.9 23.6 94 0.7 SW 7 9 4 5 1015.1 1015.0 0.0
30/02:00am 24.7 28.5 23.5 93 0.8 SW 9 9 5 5 1015.4 1015.3 0.0
30/01:30am 24.5 28.6 23.3 93 0.8 WSW 7 9 4 5 1015.6 1015.5 0.0
30/01:00am 24.4 29.7 23.0 92 0.9 CALM 0 0 0 0 1015.9 1015.8 0.0

Other Formats:

Comma delimited format used in spreadsheet applications
http://www.bom.gov.au/fwo/IDD60801/IDD60801.94102.axf

JavaScript Object Notation format (JSON) in row-major order
http://www.bom.gov.au/fwo/IDD60801/IDD60801.94102.json